createdAt,value
2022-10-10T00:03:22.477Z,6.20
2022-10-10T00:08:24.240Z,6.20
2022-10-10T00:13:26.040Z,6.20
2022-10-10T00:18:27.837Z,6.10
2022-10-10T00:23:30.259Z,6.20
2022-10-10T00:28:32.241Z,6.10
2022-10-10T00:33:34.320Z,6.10
2022-10-10T00:38:36.163Z,6.10
2022-10-10T00:43:38.124Z,6.00
2022-10-10T00:48:43.380Z,5.90
2022-10-10T00:53:51.519Z,5.80
2022-10-10T00:58:56.323Z,5.80
2022-10-10T01:04:00.021Z,5.80
2022-10-10T01:09:02.087Z,5.80
2022-10-10T01:14:36.270Z,5.80
2022-10-10T01:19:59.538Z,5.70
2022-10-10T01:25:26.308Z,5.60
2022-10-10T01:30:29.474Z,5.50
2022-10-10T01:35:40.101Z,5.50
2022-10-10T01:40:50.357Z,5.60
2022-10-10T01:45:53.475Z,5.50
2022-10-10T01:51:22.692Z,5.60
2022-10-10T01:56:32.993Z,5.70
2022-10-10T02:01:57.006Z,5.80
2022-10-10T02:07:16.006Z,5.80
2022-10-10T02:12:19.930Z,5.80
2022-10-10T02:17:24.499Z,5.70
2022-10-10T02:22:28.652Z,5.70
2022-10-10T02:27:33.418Z,5.70
2022-10-10T02:32:47.167Z,5.70
2022-10-10T02:37:50.172Z,5.60
2022-10-10T02:42:53.398Z,5.60
2022-10-10T02:47:55.836Z,5.60
2022-10-10T02:52:58.535Z,5.60
2022-10-10T02:58:00.263Z,5.50
2022-10-10T03:03:02.011Z,5.50
2022-10-10T03:08:06.846Z,5.50
2022-10-10T03:13:11.023Z,5.40
2022-10-10T03:18:12.744Z,5.30
2022-10-10T03:23:14.495Z,5.40
2022-10-10T03:28:16.749Z,5.40
2022-10-10T03:33:18.643Z,5.30
2022-10-10T03:38:20.391Z,5.30
2022-10-10T03:43:22.175Z,5.40
2022-10-10T03:48:24.016Z,5.40
2022-10-10T03:53:25.850Z,5.40
2022-10-10T03:58:27.583Z,5.30
2022-10-10T04:03:30.457Z,5.30
2022-10-10T04:08:33.546Z,5.40
2022-10-10T04:13:35.278Z,5.40
2022-10-10T04:18:37.122Z,5.40
2022-10-10T04:23:40.536Z,5.50
2022-10-10T04:28:42.329Z,5.40
2022-10-10T04:33:44.080Z,5.40
2022-10-10T04:38:45.851Z,5.40
2022-10-10T04:43:47.584Z,5.50
2022-10-10T04:48:49.421Z,5.50
2022-10-10T04:53:51.187Z,5.40
2022-10-10T04:58:53.173Z,5.50
2022-10-10T05:03:56.023Z,5.40
2022-10-10T05:08:57.734Z,5.50
2022-10-10T05:13:59.566Z,5.60
2022-10-10T05:19:01.862Z,5.70
2022-10-10T05:24:03.998Z,5.70
2022-10-10T05:29:06.379Z,5.70
2022-10-10T05:34:12.507Z,5.70
2022-10-10T05:39:14.337Z,5.80
2022-10-10T05:44:16.058Z,5.90
2022-10-10T05:49:17.830Z,5.90
2022-10-10T05:54:19.558Z,5.90
2022-10-10T05:59:21.283Z,6.00
2022-10-10T06:04:23.464Z,6.10
2022-10-10T06:09:25.232Z,6.30
2022-10-10T06:14:27.000Z,6.60
2022-10-10T06:19:28.732Z,7.10
2022-10-10T06:24:30.924Z,7.50
2022-10-10T06:29:32.652Z,9.20
2022-10-10T06:34:34.403Z,10.90
2022-10-10T06:39:36.152Z,11.60
2022-10-10T06:44:37.899Z,12.30
2022-10-10T06:49:39.633Z,13.10
2022-10-10T06:54:41.548Z,14.00
2022-10-10T06:59:43.390Z,15.40
2022-10-10T07:04:45.225Z,16.50
2022-10-10T07:09:46.962Z,17.80
2022-10-10T07:14:48.693Z,18.50
2022-10-10T07:19:50.468Z,19.90
2022-10-10T07:24:52.839Z,19.40
2022-10-10T07:29:54.890Z,20.30
2022-10-10T07:34:58.410Z,21.10
2022-10-10T07:40:00.191Z,20.50
2022-10-10T07:45:02.223Z,21.80
2022-10-10T07:50:04.708Z,24.50
2022-10-10T07:55:07.053Z,23.10
2022-10-10T08:00:10.721Z,21.80
2022-10-10T08:05:12.690Z,22.00
2022-10-10T08:10:14.496Z,22.00
2022-10-10T08:15:16.329Z,22.60
2022-10-10T08:20:18.151Z,22.90
2022-10-10T08:25:20.080Z,22.20
2022-10-10T08:30:21.892Z,23.50
2022-10-10T08:35:23.667Z,20.60
2022-10-10T08:40:28.733Z,22.20
2022-10-10T08:45:33.364Z,23.50
2022-10-10T08:50:41.067Z,24.40
2022-10-10T08:55:43.992Z,22.50
2022-10-10T09:00:49.223Z,22.60
2022-10-10T09:06:18.652Z,22.30
2022-10-10T09:11:40.727Z,23.10
2022-10-10T09:16:52.355Z,22.00
2022-10-10T09:21:59.927Z,20.60
2022-10-10T09:27:04.735Z,19.20
2022-10-10T09:32:11.938Z,20.50
2022-10-10T09:37:42.656Z,20.10
2022-10-10T09:42:46.213Z,20.20
2022-10-10T09:47:53.219Z,20.50
2022-10-10T09:52:57.145Z,20.70
2022-10-10T09:58:04.548Z,21.00
2022-10-10T10:03:14.185Z,19.10
2022-10-10T10:08:31.487Z,17.00
2022-10-10T10:13:36.538Z,15.50
2022-10-10T10:18:45.377Z,15.20
2022-10-10T10:24:02.578Z,15.00
2022-10-10T10:29:04.335Z,15.50
2022-10-10T10:34:30.209Z,15.60
2022-10-10T10:39:38.075Z,15.00
2022-10-10T10:44:53.256Z,14.50
2022-10-10T10:50:33.714Z,14.40
2022-10-10T10:55:44.922Z,14.40
2022-10-10T11:01:20.146Z,14.90
2022-10-10T11:07:13.765Z,15.50
2022-10-10T11:12:43.047Z,15.10
2022-10-10T11:17:55.452Z,14.90
2022-10-10T11:23:10.428Z,14.90
2022-10-10T11:28:27.969Z,14.60
2022-10-10T11:33:40.935Z,14.70
2022-10-10T11:38:48.536Z,14.50
2022-10-10T11:44:09.307Z,14.80
2022-10-10T11:49:14.196Z,15.10
2022-10-10T11:54:33.211Z,14.80
2022-10-10T11:59:47.643Z,15.00
2022-10-10T12:04:50.734Z,15.30
2022-10-10T12:10:01.978Z,15.10
2022-10-10T12:15:06.937Z,14.90
2022-10-10T12:20:33.994Z,14.70
2022-10-10T12:25:42.140Z,14.50
2022-10-10T12:30:58.483Z,14.80
2022-10-10T12:36:19.425Z,14.50
2022-10-10T12:41:21.543Z,14.20
2022-10-10T12:46:31.613Z,14.10
2022-10-10T12:51:36.116Z,14.00
2022-10-10T12:56:47.950Z,14.10
2022-10-10T13:02:01.900Z,14.20
2022-10-10T13:07:04.491Z,14.10
2022-10-10T13:12:20.815Z,14.10
2022-10-10T13:17:27.189Z,14.00
2022-10-10T13:22:30.501Z,13.90
2022-10-10T13:27:35.289Z,14.00
2022-10-10T13:32:37.944Z,14.00
2022-10-10T13:37:41.575Z,14.10
2022-10-10T13:42:44.027Z,14.10
2022-10-10T13:47:53.254Z,14.00
2022-10-10T13:53:29.585Z,14.00
2022-10-10T13:58:38.702Z,13.90
2022-10-10T14:03:47.308Z,13.80
2022-10-10T14:08:50.034Z,13.70
2022-10-10T14:14:00.925Z,13.70
2022-10-10T14:19:02.738Z,13.60
2022-10-10T14:24:04.740Z,13.60
2022-10-10T14:29:15.842Z,13.40
2022-10-10T14:34:17.623Z,13.40
2022-10-10T14:39:20.015Z,13.20
2022-10-10T14:44:21.748Z,13.10
2022-10-10T14:49:23.827Z,13.10
2022-10-10T14:54:25.568Z,12.90
2022-10-10T14:59:48.167Z,12.70
2022-10-10T15:04:49.619Z,12.60
2022-10-10T15:10:19.233Z,12.30
2022-10-10T15:15:14.013Z,12.00
2022-10-10T15:20:16.166Z,11.60
2022-10-10T15:25:18.032Z,11.50
2022-10-10T15:30:19.964Z,11.40
2022-10-10T15:35:23.965Z,11.20
2022-10-10T15:40:25.902Z,11.00
2022-10-10T15:50:51.305Z,10.80
2022-10-10T15:55:53.034Z,10.50
2022-10-10T16:00:54.827Z,10.30
2022-10-10T16:05:56.624Z,10.20
2022-10-10T16:10:58.681Z,10.20
2022-10-10T16:16:03.156Z,10.20
2022-10-10T16:21:06.629Z,10.20
2022-10-10T16:26:12.535Z,10.10
2022-10-10T16:31:17.655Z,10.10
2022-10-10T16:36:27.635Z,10.00
2022-10-10T16:41:48.490Z,10.00
2022-10-10T16:46:51.077Z,10.00
2022-10-10T16:51:52.839Z,9.80
2022-10-10T16:56:54.567Z,9.80
2022-10-10T17:01:56.339Z,9.70
2022-10-10T17:06:58.167Z,9.70
2022-10-10T17:11:59.892Z,9.50
2022-10-10T17:17:16.961Z,9.50
2022-10-10T17:22:18.988Z,9.50
2022-10-10T17:27:20.872Z,9.40
2022-10-10T17:32:22.619Z,9.30
2022-10-10T17:37:25.184Z,9.20
2022-10-10T17:42:27.002Z,9.20
2022-10-10T17:47:28.889Z,9.30
2022-10-10T17:52:30.632Z,9.20
2022-10-10T17:57:33.394Z,9.20
2022-10-10T18:02:35.133Z,9.20
2022-10-10T18:07:36.869Z,9.20
2022-10-10T18:12:38.647Z,9.30
2022-10-10T18:17:40.475Z,9.20
2022-10-10T18:22:42.223Z,9.10
2022-10-10T18:27:43.955Z,9.10
2022-10-10T18:32:45.795Z,9.10
2022-10-10T18:37:47.538Z,8.90
2022-10-10T18:42:49.308Z,8.90
2022-10-10T18:47:51.137Z,9.00
2022-10-10T18:52:53.731Z,8.90
2022-10-10T18:57:55.968Z,8.90
2022-10-10T19:02:57.707Z,9.20
2022-10-10T19:07:59.475Z,9.00
2022-10-10T19:13:01.185Z,8.90
2022-10-10T19:18:03.063Z,8.90
2022-10-10T19:23:05.019Z,8.80
2022-10-10T19:28:07.597Z,8.70
2022-10-10T19:33:10.238Z,8.70
2022-10-10T19:38:12.172Z,8.70
2022-10-10T19:43:15.165Z,8.60
2022-10-10T19:48:18.580Z,8.60
2022-10-10T19:53:20.335Z,8.50
2022-10-10T19:58:22.149Z,8.50
2022-10-10T20:03:25.007Z,8.40
2022-10-10T20:08:27.004Z,8.40
2022-10-10T20:13:29.197Z,8.40
2022-10-10T20:18:33.614Z,8.30
2022-10-10T20:23:35.360Z,8.10
2022-10-10T20:28:37.765Z,8.40
2022-10-10T20:33:39.529Z,8.30
2022-10-10T20:38:41.624Z,8.30
2022-10-10T20:43:43.460Z,8.10
2022-10-10T20:48:45.203Z,8.20
2022-10-10T20:53:57.149Z,8.20
2022-10-10T20:58:59.916Z,8.10
2022-10-10T21:04:01.667Z,8.00
2022-10-10T21:09:06.383Z,8.00
2022-10-10T21:14:08.420Z,7.90
2022-10-10T21:19:11.868Z,7.80
2022-10-10T21:24:13.983Z,7.90
2022-10-10T21:29:15.975Z,7.80
2022-10-10T21:34:19.115Z,7.80
2022-10-10T21:39:21.276Z,7.70
2022-10-10T21:44:23.080Z,7.70
2022-10-10T21:49:24.861Z,7.70
2022-10-10T21:54:27.111Z,7.70
2022-10-10T21:59:31.705Z,7.60
2022-10-10T22:04:33.441Z,7.60
2022-10-10T22:09:35.684Z,7.50
2022-10-10T22:14:37.436Z,7.50
2022-10-10T22:19:39.200Z,7.80
2022-10-10T22:24:40.999Z,7.70
2022-10-10T22:29:42.772Z,7.60
2022-10-10T22:34:44.495Z,7.50
2022-10-10T22:39:46.279Z,7.60
2022-10-10T22:44:48.028Z,7.70
2022-10-10T22:49:49.764Z,7.80
2022-10-10T22:54:51.493Z,8.00
2022-10-10T22:59:53.855Z,7.90
2022-10-10T23:04:55.843Z,7.90
2022-10-10T23:09:57.592Z,8.00
2022-10-10T23:14:59.518Z,8.00
2022-10-10T23:20:01.231Z,7.90
2022-10-10T23:25:03.337Z,8.10
2022-10-10T23:30:05.694Z,8.10
2022-10-10T23:35:08.189Z,8.10
2022-10-10T23:40:10.540Z,8.10
2022-10-10T23:45:12.295Z,8.20
2022-10-10T23:50:14.262Z,8.00
2022-10-10T23:55:16.157Z,7.90
